Time;durP1;ratioP1;P1;durP2;ratioP2;P2;SDS_P1;SDS_P2;PMS_P1;PMS_P2;Temp;Humidity;BMP_temperature;BMP_pressure;BME280_temperature;BME280_humidity;BME280_pressure;Samples;Min_cycle;Max_cycle;Signal;HPM_P1;HPM_P2
2023/02/08 00:01:19;;;;;;;16.37;8.37;;;-1.30;99.90;;;;;;5091926;28;20445;-56
2023/02/08 00:03:45;;;;;;;16.13;7.97;;;-1.30;99.90;;;;;;5091706;28;20046;-55
2023/02/08 00:06:11;;;;;;;18.93;7.90;;;-1.30;99.90;;;;;;5090776;28;20458;-55
2023/02/08 00:08:37;;;;;;;18.67;8.47;;;-1.30;99.90;;;;;;5091433;28;20028;-55
2023/02/08 00:11:04;;;;;;;14.67;7.93;;;-1.40;99.90;;;;;;5091798;28;20798;-54
2023/02/08 00:13:31;;;;;;;17.70;8.27;;;-1.40;99.90;;;;;;5091497;28;20171;-55
2023/02/08 00:15:57;;;;;;;17.07;7.83;;;-1.40;99.90;;;;;;5091880;28;20437;-54
2023/02/08 00:18:23;;;;;;;17.13;7.90;;;-1.40;99.90;;;;;;5090446;28;20989;-54
2023/02/08 00:20:49;;;;;;;19.77;9.07;;;-1.40;99.90;;;;;;5091570;28;20456;-55
2023/02/08 00:23:15;;;;;;;19.73;8.03;;;-1.40;99.90;;;;;;5091439;28;20032;-55
2023/02/08 00:25:41;;;;;;;22.37;9.47;;;-1.50;99.90;;;;;;5091330;28;20472;-55
2023/02/08 00:28:11;;;;;;;18.23;9.03;;;-1.50;99.90;;;;;;5091596;28;20103;-55
2023/02/08 00:30:37;;;;;;;16.43;7.80;;;-1.50;99.90;;;;;;5090045;28;21028;-53
2023/02/08 00:33:03;;;;;;;22.90;8.13;;;-1.50;99.90;;;;;;5090049;28;20028;-54
2023/02/08 00:35:30;;;;;;;17.40;7.90;;;-1.60;99.90;;;;;;5091151;28;20032;-56
2023/02/08 00:37:56;;;;;;;15.87;7.47;;;-1.60;99.90;;;;;;5089670;28;20458;-55
2023/02/08 00:40:23;;;;;;;21.83;7.80;;;-1.60;99.90;;;;;;5091354;28;21023;-56
2023/02/08 00:42:48;;;;;;;19.93;8.23;;;-1.60;99.90;;;;;;5091124;28;20528;-55
2023/02/08 00:45:14;;;;;;;15.70;7.03;;;-1.60;99.90;;;;;;5089795;28;20492;-57
2023/02/08 00:47:40;;;;;;;18.23;6.80;;;-1.60;99.90;;;;;;5091865;28;20034;-52
2023/02/08 00:50:06;;;;;;;18.73;7.07;;;-1.70;99.90;;;;;;5092106;28;20103;-54
2023/02/08 00:52:32;;;;;;;19.07;7.60;;;-1.60;99.90;;;;;;5090758;28;20032;-52
2023/02/08 00:54:57;;;;;;;14.40;6.83;;;-1.70;99.90;;;;;;5091420;28;20054;-54
2023/02/08 00:57:24;;;;;;;17.27;6.67;;;-1.70;99.90;;;;;;5091510;28;20640;-53
2023/02/08 00:59:49;;;;;;;15.60;7.13;;;-1.70;99.90;;;;;;5092074;28;20047;-55
2023/02/08 01:02:15;;;;;;;16.57;6.83;;;-1.80;99.90;;;;;;5089946;28;20465;-55
2023/02/08 01:04:41;;;;;;;18.20;7.03;;;-1.80;99.90;;;;;;5090585;28;20399;-54
2023/02/08 01:07:07;;;;;;;14.50;6.73;;;-1.80;99.90;;;;;;5089262;28;20085;-55
2023/02/08 01:09:33;;;;;;;17.40;6.83;;;-1.80;99.90;;;;;;5090762;28;20111;-55
2023/02/08 01:11:59;;;;;;;18.07;7.70;;;-1.80;99.90;;;;;;5090924;28;20541;-56
2023/02/08 01:14:25;;;;;;;14.90;6.10;;;-1.80;99.90;;;;;;5090503;28;20434;-54
2023/02/08 01:16:52;;;;;;;18.83;6.67;;;-1.80;99.90;;;;;;5090548;28;20035;-55
2023/02/08 01:19:18;;;;;;;13.67;6.97;;;-1.80;99.90;;;;;;5090618;28;20434;-55
2023/02/08 01:21:44;;;;;;;15.37;6.60;;;-1.80;99.90;;;;;;5089342;28;20458;-55
2023/02/08 01:24:11;;;;;;;13.60;6.50;;;-1.80;99.90;;;;;;5089048;28;20449;-55
2023/02/08 01:26:37;;;;;;;14.67;6.50;;;-1.80;99.90;;;;;;5090433;28;20032;-57
2023/02/08 01:29:05;;;;;;;18.97;6.57;;;-1.80;99.90;;;;;;5088996;28;21029;-57
2023/02/08 01:31:33;;;;;;;23.03;6.80;;;-1.80;99.90;;;;;;5089261;28;20464;-55
2023/02/08 01:34:00;;;;;;;17.73;6.90;;;-1.80;99.90;;;;;;5088827;28;20482;-55
2023/02/08 01:36:28;;;;;;;15.90;6.63;;;-1.80;99.90;;;;;;5090192;28;20464;-55
2023/02/08 01:38:54;;;;;;;19.33;6.83;;;-1.90;99.90;;;;;;5090451;28;20465;-55
2023/02/08 01:41:23;;;;;;;13.53;6.57;;;-1.90;99.90;;;;;;5090481;28;20426;-55
2023/02/08 01:44:00;;;;;;;15.25;6.65;;;-1.90;99.90;;;;;;5090364;28;20441;-55
2023/02/08 01:46:26;;;;;;;17.73;7.63;;;-1.90;99.90;;;;;;5090095;28;20024;-53
2023/02/08 01:48:55;;;;;;;15.37;7.13;;;-2.00;99.90;;;;;;5090269;28;20418;-56
2023/02/08 01:51:24;;;;;;;12.80;5.50;;;-2.00;99.90;;;;;;5090483;28;20024;-55
2023/02/08 01:53:53;;;;;;;14.82;7.28;;;-2.00;99.90;;;;;;5090087;28;20028;-54
2023/02/08 01:56:30;;;;;;;16.58;5.95;;;-2.00;99.90;;;;;;5088890;28;20028;-54
2023/02/08 01:58:59;;;;;;;18.13;6.33;;;-2.00;99.90;;;;;;5089054;28;20103;-56
2023/02/08 02:01:28;;;;;;;16.80;5.85;;;-2.00;99.90;;;;;;5089088;28;20422;-54
2023/02/08 02:03:54;;;;;;;17.52;6.35;;;-2.10;99.90;;;;;;5090138;28;20039;-55
2023/02/08 02:06:28;;;;;;;17.20;6.30;;;-2.00;99.90;;;;;;5090208;28;20025;-54
2023/02/08 02:09:10;;;;;;;12.43;6.00;;;-2.10;99.90;;;;;;5090304;28;20441;-56
2023/02/08 02:11:37;;;;;;;14.57;6.07;;;-2.10;99.90;;;;;;5088984;28;20515;-53
2023/02/08 02:14:05;;;;;;;16.43;6.53;;;-2.10;99.90;;;;;;5088746;28;20478;-55
2023/02/08 02:16:30;;;;;;;19.43;6.50;;;-2.10;99.90;;;;;;5088770;28;20076;-54
2023/02/08 02:18:57;;;;;;;15.70;7.17;;;-2.20;99.90;;;;;;5090248;28;20425;-56
2023/02/08 02:21:39;;;;;;;13.90;6.30;;;-2.20;99.90;;;;;;5089041;28;20035;-55
2023/02/08 02:24:41;;;;;;;14.73;6.30;;;-2.20;99.90;;;;;;5090046;28;20956;-54
2023/02/08 02:27:44;;;;;;;12.80;6.20;;;-2.20;99.90;;;;;;5090168;28;20434;-56
2023/02/08 02:30:28;;;;;;;12.83;6.70;;;-2.10;99.90;;;;;;5090320;28;20442;-55
2023/02/08 02:33:12;;;;;;;13.53;6.47;;;-2.20;99.90;;;;;;5090319;28;20957;-55
2023/02/08 02:35:55;;;;;;;15.07;6.37;;;-2.20;99.90;;;;;;5090212;28;20779;-55
2023/02/08 02:38:45;;;;;;;11.97;6.30;;;-2.20;99.90;;;;;;5090130;28;20495;-55
2023/02/08 02:44:47;;;;;;;14.20;6.83;;;-2.20;99.90;;;;;;5093647;28;20527;-57
2023/02/08 02:47:39;;;;;;;15.03;7.07;;;-2.20;99.90;;;;;;5093475;28;20425;-56
2023/02/08 02:50:24;;;;;;;15.43;7.13;;;-2.20;99.90;;;;;;5093549;28;20834;-55
2023/02/08 02:53:02;;;;;;;15.03;7.10;;;-2.20;99.90;;;;;;5093616;28;20458;-55
2023/02/08 02:55:32;;;;;;;18.73;7.77;;;-2.20;99.90;;;;;;5093398;28;20437;-55
2023/02/08 02:58:00;;;;;;;14.30;7.17;;;-2.20;99.90;;;;;;5093357;28;20817;-56
2023/02/08 03:00:27;;;;;;;19.23;7.53;;;-2.20;99.90;;;;;;5093552;28;20414;-55
2023/02/08 03:02:54;;;;;;;16.17;7.57;;;-2.20;99.90;;;;;;5093303;28;20958;-54
2023/02/08 03:05:20;;;;;;;14.00;7.20;;;-2.20;99.90;;;;;;5093134;28;21103;-57
2023/02/08 03:08:02;;;;;;;17.27;7.50;;;-2.30;99.90;;;;;;5093357;28;20485;-55
2023/02/08 03:10:49;;;;;;;18.50;7.87;;;-2.30;99.90;;;;;;5093380;28;20858;-55
2023/02/08 03:13:35;;;;;;;16.23;8.37;;;-2.30;99.90;;;;;;5093097;28;20495;-55
2023/02/08 03:16:10;;;;;;;17.07;7.30;;;-2.30;99.90;;;;;;5092999;28;20426;-56
2023/02/08 03:18:46;;;;;;;16.33;7.10;;;-2.30;99.90;;;;;;5092637;28;20557;-56
2023/02/08 03:21:23;;;;;;;19.77;7.80;;;-2.30;99.90;;;;;;5092978;28;20793;-57
2023/02/08 03:23:54;;;;;;;17.00;7.50;;;-2.30;99.90;;;;;;5092744;28;20438;-56
2023/02/08 03:26:23;;;;;;;16.47;7.83;;;-2.30;99.90;;;;;;5092578;28;20514;-55
2023/02/08 03:28:49;;;;;;;14.70;7.05;;;-2.30;99.90;;;;;;5092681;28;20437;-55
2023/02/08 03:31:21;;;;;;;19.67;8.60;;;-2.30;99.90;;;;;;5092614;28;20028;-54
2023/02/08 03:33:57;;;;;;;14.40;7.53;;;-2.30;99.90;;;;;;5092324;28;20027;-54
2023/02/08 03:36:31;;;;;;;14.60;7.73;;;-2.30;99.90;;;;;;5092272;28;20483;-56
2023/02/08 03:39:00;;;;;;;18.07;9.03;;;-2.30;99.90;;;;;;5092487;28;20418;-55
2023/02/08 03:41:32;;;;;;;14.13;7.67;;;-2.30;99.90;;;;;;5092547;28;20520;-54
2023/02/08 03:44:22;;;;;;;14.63;7.70;;;-2.30;99.90;;;;;;5092229;28;20442;-54
2023/02/08 03:46:53;;;;;;;19.87;9.20;;;-2.30;99.90;;;;;;5092210;28;20794;-55
2023/02/08 03:49:27;;;;;;;18.83;8.77;;;-2.30;99.90;;;;;;5092282;28;20870;-55
2023/02/08 03:51:56;;;;;;;19.47;8.30;;;-2.30;99.90;;;;;;5092373;28;20524;-55
2023/02/08 03:54:24;;;;;;;;;;;-2.30;99.90;;;;;;5095232;22;20505;-50
2023/02/08 03:57:01;;;;;;;22.27;9.43;;;-2.30;99.90;;;;;;5071533;28;19912;-52
2023/02/08 03:59:31;;;;;;;17.90;9.43;;;-2.30;99.90;;;;;;5071833;28;20458;-54
2023/02/08 04:02:02;;;;;;;20.90;9.70;;;-2.30;99.90;;;;;;5071553;28;20435;-49
2023/02/08 04:04:32;;;;;;;20.17;10.10;;;-2.20;99.90;;;;;;5071515;28;20840;-50
2023/02/08 04:06:58;;;;;;;19.60;9.33;;;-2.30;99.90;;;;;;5071651;28;20438;-51
2023/02/08 04:09:24;;;;;;;20.03;10.27;;;-2.30;99.90;;;;;;5071570;28;20496;-54
2023/02/08 04:11:50;;;;;;;19.97;9.87;;;-2.30;99.90;;;;;;5071506;28;20545;-51
2023/02/08 04:14:16;;;;;;;23.43;10.57;;;-2.30;99.90;;;;;;5071198;28;20028;-54
2023/02/08 04:16:42;;;;;;;24.07;10.13;;;-2.30;99.90;;;;;;5071028;28;20811;-54
2023/02/08 04:19:08;;;;;;;21.40;9.27;;;-2.30;99.90;;;;;;5071311;28;20032;-49
2023/02/08 04:21:34;;;;;;;20.63;9.43;;;-2.30;99.90;;;;;;5071370;28;20071;-52
2023/02/08 04:23:59;;;;;;;20.73;9.97;;;-2.30;99.90;;;;;;5071064;28;20029;-51
2023/02/08 04:26:26;;;;;;;21.83;10.10;;;-2.30;99.90;;;;;;5071086;28;20142;-50
2023/02/08 04:28:51;;;;;;;19.30;8.70;;;-2.20;99.90;;;;;;5071186;28;20501;-48
2023/02/08 04:31:17;;;;;;;19.23;9.37;;;-2.30;99.90;;;;;;5070953;28;20442;-52
2023/02/08 04:33:43;;;;;;;20.87;9.77;;;-2.30;99.90;;;;;;5070887;28;20047;-53
2023/02/08 04:36:09;;;;;;;18.83;9.63;;;-2.30;99.90;;;;;;5071099;28;20024;-52
2023/02/08 04:38:35;;;;;;;21.80;9.37;;;-2.30;99.90;;;;;;5070691;28;20115;-55
2023/02/08 04:41:01;;;;;;;19.70;9.40;;;-2.30;99.90;;;;;;5071001;28;20074;-50
2023/02/08 04:43:27;;;;;;;20.43;9.90;;;-2.30;99.90;;;;;;5070669;28;20485;-54
2023/02/08 04:45:52;;;;;;;19.53;9.53;;;-2.30;99.90;;;;;;5070804;28;20901;-53
2023/02/08 04:48:19;;;;;;;21.27;10.30;;;-2.30;99.90;;;;;;5070737;28;20047;-53
2023/02/08 04:50:44;;;;;;;21.03;10.00;;;-2.30;99.90;;;;;;5070954;28;20036;-56
2023/02/08 04:53:10;;;;;;;21.53;10.40;;;-2.30;99.90;;;;;;5070674;28;20422;-51
2023/02/08 04:55:37;;;;;;;21.30;10.13;;;-2.30;99.90;;;;;;5070590;28;20481;-54
2023/02/08 04:58:02;;;;;;;21.63;10.97;;;-2.30;99.90;;;;;;5070530;28;20455;-52
2023/02/08 05:00:29;;;;;;;20.83;10.00;;;-2.30;99.90;;;;;;5070620;28;20426;-50
2023/02/08 05:02:56;;;;;;;22.17;10.93;;;-2.30;99.90;;;;;;5070410;28;20074;-51
2023/02/08 05:05:23;;;;;;;21.20;10.20;;;-2.30;99.90;;;;;;5070368;28;20811;-51
2023/02/08 05:07:49;;;;;;;18.97;9.67;;;-2.40;99.90;;;;;;5070394;28;20475;-50
2023/02/08 05:10:15;;;;;;;25.57;11.10;;;-2.40;99.90;;;;;;5070595;28;21066;-50
2023/02/08 05:12:40;;;;;;;22.83;10.97;;;-2.40;99.90;;;;;;5070490;28;20035;-50
2023/02/08 05:15:07;;;;;;;22.67;10.27;;;-2.40;99.90;;;;;;5070070;28;20029;-52
2023/02/08 05:17:32;;;;;;;20.13;10.00;;;-2.40;99.90;;;;;;5070347;28;20036;-54
2023/02/08 05:19:58;;;;;;;21.40;9.87;;;-2.40;99.90;;;;;;5070391;28;21130;-53
2023/02/08 05:22:24;;;;;;;21.80;10.73;;;-2.40;99.90;;;;;;5070427;28;20579;-51
2023/02/08 05:24:49;;;;;;;23.27;10.77;;;-2.40;99.90;;;;;;5070174;28;20151;-50
2023/02/08 05:27:15;;;;;;;21.53;10.33;;;-2.40;99.90;;;;;;5070234;28;20119;-53
2023/02/08 05:29:41;;;;;;;25.50;10.73;;;-2.40;99.90;;;;;;5070213;28;20035;-50
2023/02/08 05:32:08;;;;;;;21.33;10.20;;;-2.40;99.90;;;;;;5070318;28;20024;-53
2023/02/08 05:34:35;;;;;;;24.20;10.07;;;-2.50;99.90;;;;;;5070167;28;20439;-53
2023/02/08 05:37:01;;;;;;;24.70;10.57;;;-2.50;99.90;;;;;;5070008;28;21020;-53
2023/02/08 05:39:27;;;;;;;23.60;11.03;;;-2.40;99.90;;;;;;5070242;28;20537;-54
2023/02/08 05:41:52;;;;;;;24.83;11.33;;;-2.40;99.90;;;;;;5070177;28;20028;-50
2023/02/08 05:44:18;;;;;;;22.50;11.37;;;-2.40;99.90;;;;;;5069835;28;20020;-54
2023/02/08 05:46:44;;;;;;;23.03;10.87;;;-2.40;99.90;;;;;;5070102;28;20561;-49
2023/02/08 05:49:09;;;;;;;22.03;11.10;;;-2.40;99.90;;;;;;5070274;28;20419;-53
2023/02/08 05:51:35;;;;;;;22.33;11.03;;;-2.40;99.90;;;;;;5070090;28;20034;-53
2023/02/08 05:54:01;;;;;;;23.87;11.07;;;-2.50;99.90;;;;;;5069862;28;20048;-53
2023/02/08 05:56:27;;;;;;;25.03;11.63;;;-2.50;99.90;;;;;;5069806;28;20047;-52
2023/02/08 05:58:53;;;;;;;24.67;11.30;;;-2.50;99.90;;;;;;5070187;28;20100;-51
2023/02/08 06:01:19;;;;;;;25.57;10.87;;;-2.50;99.90;;;;;;5069957;28;20064;-53
2023/02/08 06:03:45;;;;;;;28.93;11.07;;;-2.50;99.90;;;;;;5069959;28;20447;-55
2023/02/08 06:06:11;;;;;;;22.63;10.43;;;-2.60;99.90;;;;;;5069945;28;20430;-53
2023/02/08 06:08:37;;;;;;;21.60;10.40;;;-2.60;99.90;;;;;;5069755;28;20028;-49
2023/02/08 06:11:04;;;;;;;26.20;11.43;;;-2.60;99.90;;;;;;5069867;28;20067;-51
2023/02/08 06:13:30;;;;;;;23.57;10.97;;;-2.60;99.90;;;;;;5069590;28;20450;-52
2023/02/08 06:15:56;;;;;;;21.63;9.60;;;-2.70;99.90;;;;;;5071522;28;20428;-50
2023/02/08 06:18:22;;;;;;;22.23;10.10;;;-2.60;99.90;;;;;;5073396;28;20503;-52
2023/02/08 06:20:50;;;;;;;21.23;10.07;;;-2.60;99.90;;;;;;5073490;28;20039;-53
2023/02/08 06:23:16;;;;;;;20.03;9.80;;;-2.70;99.90;;;;;;5073417;28;20994;-53
2023/02/08 06:25:42;;;;;;;21.17;9.80;;;-2.60;99.90;;;;;;5073177;28;20509;-51
2023/02/08 06:28:09;;;;;;;25.50;11.50;;;-2.70;99.90;;;;;;5073254;28;20054;-52
2023/02/08 06:30:36;;;;;;;22.50;11.03;;;-2.70;99.90;;;;;;5073313;28;20106;-52
2023/02/08 06:33:02;;;;;;;21.70;10.57;;;-2.60;99.90;;;;;;5073369;28;20535;-53
2023/02/08 06:35:28;;;;;;;22.17;10.87;;;-2.60;99.90;;;;;;5073002;28;20463;-51
2023/02/08 06:37:53;;;;;;;23.43;11.10;;;-2.70;99.90;;;;;;5073026;28;20462;-52
2023/02/08 06:40:19;;;;;;;24.30;11.53;;;-2.60;99.90;;;;;;5073001;28;20485;-50
2023/02/08 06:42:46;;;;;;;24.67;11.10;;;-2.60;99.90;;;;;;5055257;28;20035;-52
2023/02/08 06:45:12;;;;;;;24.70;10.47;;;-2.60;99.90;;;;;;5072901;28;20523;-49
2023/02/08 06:47:38;;;;;;;24.97;11.37;;;-2.60;99.90;;;;;;5072877;28;20533;-51
2023/02/08 06:50:05;;;;;;;24.57;12.07;;;-2.60;99.90;;;;;;5072997;28;20103;-51
2023/02/08 06:52:31;;;;;;;33.43;12.40;;;-2.60;99.90;;;;;;5073104;28;20028;-54
2023/02/08 06:54:57;;;;;;;25.83;12.07;;;-2.60;99.90;;;;;;5072484;28;20566;-54
2023/02/08 06:57:22;;;;;;;25.53;12.83;;;-2.60;99.90;;;;;;5072838;28;20557;-50
2023/02/08 06:59:48;;;;;;;26.67;12.33;;;-2.60;99.90;;;;;;5072717;28;20512;-50
2023/02/08 07:02:19;;;;;;;26.73;13.33;;;-2.60;99.90;;;;;;5073159;28;20107;-51
2023/02/08 07:04:46;;;;;;;27.70;13.17;;;-2.60;99.90;;;;;;5072638;28;20145;-54
2023/02/08 07:07:13;;;;;;;31.03;14.33;;;-2.60;99.90;;;;;;5054685;28;20438;-51
2023/02/08 07:09:39;;;;;;;34.57;17.57;;;-2.60;99.90;;;;;;5072634;28;20474;-50
2023/02/08 07:12:06;;;;;;;25.63;13.00;;;-2.50;99.90;;;;;;5072696;28;20435;-50
2023/02/08 07:14:33;;;;;;;26.77;13.60;;;-2.50;99.90;;;;;;5072350;28;20438;-55
2023/02/08 07:17:01;;;;;;;26.10;14.17;;;-2.50;99.90;;;;;;5072383;28;20537;-53
2023/02/08 07:19:27;;;;;;;30.60;13.90;;;-2.50;99.90;;;;;;5072434;28;20423;-53
2023/02/08 07:21:53;;;;;;;25.10;13.13;;;-2.50;99.90;;;;;;5072486;28;20426;-53
2023/02/08 07:24:19;;;;;;;26.20;13.20;;;-2.50;99.90;;;;;;5072578;28;20608;-54
2023/02/08 07:26:45;;;;;;;39.30;14.90;;;-2.50;99.90;;;;;;5071647;28;20541;-53
2023/02/08 07:29:10;;;;;;;33.37;14.90;;;-2.40;99.90;;;;;;5072271;28;20031;-49
2023/02/08 07:31:36;;;;;;;28.87;14.17;;;-2.40;99.90;;;;;;5072383;28;20262;-48
2023/02/08 07:34:02;;;;;;;28.27;14.70;;;-2.40;99.90;;;;;;5072021;28;20056;-50
2023/02/08 07:36:27;;;;;;;31.40;15.43;;;-2.30;99.90;;;;;;5071922;28;20021;-53
2023/02/08 07:38:53;;;;;;;31.20;14.90;;;-2.30;99.90;;;;;;5072065;28;20441;-52
2023/02/08 07:41:19;;;;;;;32.60;15.37;;;-2.20;99.90;;;;;;5072090;28;20048;-51
2023/02/08 07:43:44;;;;;;;27.63;14.07;;;-2.20;99.90;;;;;;5071835;28;20054;-52
2023/02/08 07:46:16;;;;;;;29.80;14.07;;;-2.20;99.90;;;;;;5054055;28;20476;-53
2023/02/08 07:48:42;;;;;;;27.47;14.07;;;-2.20;99.90;;;;;;5072458;28;20047;-52
2023/02/08 07:51:10;;;;;;;28.13;14.03;;;-2.10;99.90;;;;;;5071816;28;20978;-51
2023/02/08 07:53:36;;;;;;;28.17;13.63;;;-2.10;99.90;;;;;;5071693;28;20388;-51
2023/02/08 07:56:01;;;;;;;37.37;16.03;;;-2.10;99.90;;;;;;5071694;28;20423;-52
2023/02/08 07:58:27;;;;;;;30.33;14.80;;;-2.00;99.90;;;;;;5071446;28;20024;-52
2023/02/08 08:00:53;;;;;;;28.57;15.37;;;-2.00;99.90;;;;;;5071778;28;20664;-54
2023/02/08 08:03:19;;;;;;;28.73;14.33;;;-1.90;99.90;;;;;;5071455;28;20048;-52
2023/02/08 08:05:45;;;;;;;32.97;16.10;;;-1.90;99.90;;;;;;5071598;28;20040;-52
2023/02/08 08:08:11;;;;;;;33.47;15.40;;;-1.80;99.90;;;;;;5071731;28;20514;-50
2023/02/08 08:10:37;;;;;;;34.77;15.40;;;-1.80;99.90;;;;;;5071504;28;20029;-53
2023/02/08 08:13:03;;;;;;;29.30;15.10;;;-1.70;99.90;;;;;;5071557;28;20474;-51
2023/02/08 08:15:29;;;;;;;27.73;15.77;;;-1.70;99.90;;;;;;5071216;28;20477;-51
2023/02/08 08:17:55;;;;;;;27.60;15.30;;;-1.60;99.90;;;;;;5071128;28;20506;-50
2023/02/08 08:20:21;;;;;;;31.73;14.87;;;-1.60;99.90;;;;;;5071226;28;20113;-54
2023/02/08 08:22:47;;;;;;;33.27;16.37;;;-1.50;99.90;;;;;;5071515;28;20393;-51
2023/02/08 08:25:13;;;;;;;34.33;16.57;;;-1.50;99.90;;;;;;5071069;28;20443;-51
2023/02/08 08:27:39;;;;;;;37.20;17.13;;;-1.40;99.90;;;;;;5070991;28;20029;-53
2023/02/08 08:30:10;;;;;;;28.87;16.03;;;-1.30;99.90;;;;;;5071234;28;20439;-51
2023/02/08 08:32:37;;;;;;;25.80;14.37;;;-1.20;99.90;;;;;;5071090;28;20423;-52
2023/02/08 08:35:04;;;;;;;31.93;15.67;;;-1.10;99.90;;;;;;5070704;28;20032;-53
2023/02/08 08:37:29;;;;;;;26.13;14.73;;;-1.00;99.90;;;;;;5070558;28;20028;-51
2023/02/08 08:39:55;;;;;;;22.80;12.43;;;-0.90;99.90;;;;;;5070678;28;20024;-53
2023/02/08 08:42:21;;;;;;;25.40;13.23;;;-0.80;99.90;;;;;;5071053;28;20500;-52
2023/02/08 08:44:47;;;;;;;23.27;12.83;;;-0.60;99.90;;;;;;5070689;28;20082;-50
2023/02/08 08:47:13;;;;;;;24.73;12.50;;;-0.50;99.90;;;;;;5070661;28;20108;-53
2023/02/08 08:49:39;;;;;;;21.00;10.43;;;-0.30;99.90;;;;;;5070820;28;20521;-52
2023/02/08 08:52:06;;;;;;;18.93;9.00;;;0.00;99.90;;;;;;5070783;28;20028;-52
2023/02/08 08:54:33;;;;;;;21.13;11.77;;;0.40;99.90;;;;;;5070357;28;20090;-49
2023/02/08 08:56:59;;;;;;;18.63;7.50;;;0.90;99.90;;;;;;5070450;28;20094;-53
2023/02/08 08:59:25;;;;;;;18.43;8.60;;;1.40;99.90;;;;;;5070797;28;20501;-50
2023/02/08 09:01:50;;;;;;;16.33;7.50;;;1.80;99.90;;;;;;5070746;28;20036;-52
2023/02/08 09:04:16;;;;;;;13.90;6.50;;;2.30;99.90;;;;;;5070335;28;20119;-51
2023/02/08 09:06:42;;;;;;;15.90;7.30;;;2.90;99.90;;;;;;5070652;28;20100;-53
2023/02/08 09:09:08;;;;;;;17.47;6.83;;;3.40;99.40;;;;;;5070474;28;20032;-53
2023/02/08 09:11:33;;;;;;;12.43;6.17;;;3.70;99.10;;;;;;5070528;28;20029;-54
2023/02/08 09:14:03;;;;;;;12.87;6.37;;;4.40;96.90;;;;;;5070249;28;20024;-50
2023/02/08 09:16:30;;;;;;;12.13;5.87;;;4.80;94.80;;;;;;5070310;28;20393;-49
2023/02/08 09:18:58;;;;;;;12.27;5.90;;;5.20;93.60;;;;;;5070257;28;20089;-52
2023/02/08 09:21:24;;;;;;;10.80;5.88;;;5.20;94.30;;;;;;5070625;28;20495;-48
2023/02/08 09:23:50;;;;;;;12.07;6.07;;;5.40;92.20;;;;;;5070143;28;20028;-52
2023/02/08 09:26:17;;;;;;;9.17;5.20;;;6.20;91.70;;;;;;5070169;28;20037;-53
2023/02/08 09:28:43;;;;;;;11.47;6.00;;;7.10;90.50;;;;;;5070729;28;20036;-50
2023/02/08 09:31:12;;;;;;;11.40;5.83;;;8.00;84.30;;;;;;5070194;28;20040;-53
2023/02/08 09:33:38;;;;;;;10.55;5.95;;;8.90;78.00;;;;;;5070051;28;20032;-53
2023/02/08 09:36:04;;;;;;;14.00;6.43;;;8.50;72.80;;;;;;5070406;28;20032;-55
2023/02/08 09:38:30;;;;;;;9.20;5.28;;;8.70;69.50;;;;;;5069958;28;20037;-50
2023/02/08 09:41:05;;;;;;;11.00;5.57;;;9.20;71.60;;;;;;5070123;28;20477;-53
2023/02/08 09:43:40;;;;;;;11.35;5.63;;;10.10;65.30;;;;;;5069902;28;20040;-52
2023/02/08 09:46:16;;;;;;;10.75;5.10;;;10.80;63.80;;;;;;5070033;28;20477;-53
2023/02/08 09:48:43;;;;;;;9.00;5.03;;;11.90;59.40;;;;;;5069964;28;20036;-54
2023/02/08 09:51:31;;;;;;;10.95;5.72;;;12.50;57.00;;;;;;5073896;28;20029;-54
2023/02/08 09:54:13;;;;;;;11.20;5.57;;;13.40;55.30;;;;;;5085998;22;20043;-56
2023/02/08 09:56:42;;;;;;;10.00;5.45;;;14.30;53.10;;;;;;5073842;28;20032;-57
2023/02/08 09:59:22;;;;;;;8.73;5.28;;;15.30;51.20;;;;;;5073916;28;20112;-56
2023/02/08 10:01:50;;;;;;;6.72;4.70;;;15.90;49.10;;;;;;5073938;28;20036;-55
2023/02/08 10:04:32;;;;;;;9.70;5.05;;;15.40;46.40;;;;;;5074233;28;20337;-56
2023/02/08 10:06:58;;;;;;;8.77;5.05;;;16.00;46.60;;;;;;5073679;28;20032;-56
2023/02/08 10:09:26;;;;;;;7.95;5.15;;;16.10;45.10;;;;;;5073872;28;20599;-57
2023/02/08 10:12:00;;;;;;;8.85;4.95;;;15.70;45.20;;;;;;5073932;28;20158;-57
2023/02/08 10:14:58;;;;;;;11.07;5.50;;;16.20;45.40;;;;;;5073628;28;20040;-57
2023/02/08 10:18:00;;;;;;;10.50;5.30;;;15.80;44.70;;;;;;5065087;28;20044;-56
2023/02/08 10:20:56;;;;;;;9.80;5.50;;;16.60;45.30;;;;;;5073619;28;20029;-56
2023/02/08 10:23:56;;;;;;;9.15;5.63;;;16.30;44.00;;;;;;5073448;28;20099;-56
2023/02/08 10:26:38;;;;;;;8.18;4.80;;;16.50;43.50;;;;;;5072859;28;20035;-57
2023/02/08 10:29:32;;;;;;;6.53;4.57;;;17.50;43.10;;;;;;5073460;28;20401;-57
2023/02/08 10:32:24;;;;;;;8.60;5.32;;;17.30;42.50;;;;;;5073245;28;20029;-56
2023/02/08 10:35:02;;;;;;;9.68;5.60;;;16.80;42.20;;;;;;5073186;28;20039;-56
2023/02/08 10:37:33;;;;;;;8.38;5.03;;;17.20;41.90;;;;;;5073025;28;20036;-57
2023/02/08 10:40:28;;;;;;;10.82;5.00;;;17.30;42.30;;;;;;5073085;28;20032;-57
2023/02/08 10:43:16;;;;;;;6.97;4.90;;;17.70;41.00;;;;;;5066249;28;20032;-57
2023/02/08 10:46:23;;;;;;;10.60;5.43;;;17.50;42.00;;;;;;5072999;28;20028;-57
2023/02/08 10:48:54;;;;;;;;;;;18.60;40.40;;;;;;5039425;28;20127;-57
2023/02/08 10:51:20;;;;;;;7.63;4.45;;;18.60;39.40;;;;;;5073235;28;19918;-57
2023/02/08 10:53:47;;;;;;;9.50;4.53;;;19.10;38.90;;;;;;5072701;28;20433;-56
2023/02/08 10:56:56;;;;;;;7.03;4.40;;;19.10;38.20;;;;;;5070888;28;20098;-60
2023/02/08 10:59:36;;;;;;;8.50;4.90;;;18.70;38.10;;;;;;5063674;28;20066;-58
2023/02/08 11:02:10;;;;;;;7.25;4.30;;;19.10;39.10;;;;;;5055525;28;20524;-58
2023/02/08 11:05:18;;;;;;;6.95;4.60;;;19.80;38.50;;;;;;5054908;28;20039;-58
2023/02/08 11:07:45;;;;;;;10.38;4.20;;;18.70;38.70;;;;;;5045796;28;20124;-58
2023/02/08 11:10:23;;;;;;;7.30;4.47;;;18.40;38.70;;;;;;5065072;28;20027;-58
2023/02/08 11:13:04;;;;;;;7.43;4.55;;;18.70;37.70;;;;;;5052829;28;20104;-57
2023/02/08 11:15:37;;;;;;;6.32;4.38;;;16.80;40.00;;;;;;5052395;28;20033;-56
2023/02/08 11:18:04;;;;;;;6.88;4.35;;;17.80;38.70;;;;;;5052640;28;20397;-57
2023/02/08 11:20:37;;;;;;;5.97;3.83;;;18.60;37.80;;;;;;5052540;28;20705;-56
2023/02/08 11:23:18;;;;;;;5.72;3.95;;;19.40;36.50;;;;;;5052492;28;20029;-56
2023/02/08 11:25:44;;;;;;;11.27;4.60;;;19.30;35.80;;;;;;5034583;28;20393;-54
2023/02/08 11:28:28;;;;;;;5.30;3.70;;;18.70;37.80;;;;;;5052576;28;20039;-55
2023/02/08 11:31:02;;;;;;;8.25;4.05;;;18.80;35.40;;;;;;5052129;28;20405;-54
2023/02/08 11:33:28;;;;;;;5.90;3.50;;;17.70;36.50;;;;;;5052251;28;20435;-54
2023/02/08 11:36:04;;;;;;;6.63;3.95;;;17.80;36.90;;;;;;5052396;28;20393;-55
2023/02/08 11:38:33;;;;;;;6.40;3.80;;;18.70;36.40;;;;;;5034132;28;20485;-54
2023/02/08 11:41:03;;;;;;;5.13;3.50;;;19.40;35.70;;;;;;5052230;28;20036;-54
2023/02/08 11:43:34;;;;;;;5.93;3.80;;;20.30;34.80;;;;;;5052184;28;20405;-54
2023/02/08 11:46:02;;;;;;;5.65;3.47;;;19.10;33.50;;;;;;5034393;28;20033;-55
2023/02/08 11:48:36;;;;;;;6.88;3.40;;;16.80;35.70;;;;;;5052016;28;20086;-56
2023/02/08 11:51:02;;;;;;;5.13;3.22;;;15.90;39.60;;;;;;5052046;28;20382;-54
2023/02/08 11:53:35;;;;;;;6.38;3.30;;;17.30;36.80;;;;;;5052209;28;20441;-53
2023/02/08 11:56:04;;;;;;;5.75;3.13;;;16.70;36.40;;;;;;5052113;28;20033;-53
2023/02/08 11:58:31;;;;;;;5.18;2.92;;;16.00;35.70;;;;;;5051880;28;20432;-54
2023/02/08 12:01:00;;;;;;;5.00;3.55;;;15.80;36.90;;;;;;5052136;28;20024;-55
2023/02/08 12:03:37;;;;;;;6.18;3.30;;;15.30;37.70;;;;;;5051431;28;20024;-49
2023/02/08 12:06:06;;;;;;;3.80;2.70;;;15.40;37.40;;;;;;5051989;28;20112;-52
2023/02/08 12:08:31;;;;;;;;;;;15.60;35.50;;;;;;5052074;28;20029;-55
2023/02/08 12:11:18;;;;;;;6.03;3.10;;;14.80;36.60;;;;;;5052031;28;20000;-53
2023/02/08 12:13:52;;;;;;;4.00;2.70;;;14.90;37.60;;;;;;5051581;28;20033;-52
2023/02/08 12:16:37;;;;;;;7.72;3.08;;;16.30;36.70;;;;;;5051979;28;20433;-54
2023/02/08 12:19:39;;;;;;;3.92;2.60;;;17.10;35.10;;;;;;5051638;28;20029;-55
2023/02/08 12:22:11;;;;;;;4.15;2.50;;;17.70;34.50;;;;;;5051748;28;20039;-54
2023/02/08 12:24:58;;;;;;;25.40;7.10;;;17.70;33.30;;;;;;5051548;28;20087;-54
2023/02/08 12:27:54;;;;;;;6.53;3.40;;;16.50;33.50;;;;;;5051522;28;20033;-52
2023/02/08 12:30:32;;;;;;;4.60;3.10;;;14.70;35.80;;;;;;5051422;28;20037;-52
2023/02/08 12:33:34;;;;;;;6.70;2.92;;;13.50;37.30;;;;;;5051562;28;20033;-53
2023/02/08 12:36:40;;;;;;;4.47;2.65;;;12.80;40.90;;;;;;5045101;28;20099;-51
2023/02/08 12:42:11;;;;;;;6.18;2.85;;;14.50;40.40;;;;;;5051437;28;20052;-50
2023/02/08 12:44:46;;;;;;;7.57;3.10;;;15.90;37.20;;;;;;5051067;28;20481;-46
2023/02/08 12:47:24;;;;;;;6.38;2.65;;;17.10;35.60;;;;;;5051127;28;20397;-45
2023/02/08 12:50:11;;;;;;;4.45;2.47;;;19.00;34.10;;;;;;5051039;28;20444;-47
2023/02/08 12:52:51;;;;;;;4.10;2.60;;;20.30;32.40;;;;;;5050872;28;20123;-49
2023/02/08 12:55:34;;;;;;;4.95;3.00;;;21.50;31.90;;;;;;5050548;28;20029;-49
2023/02/08 12:58:20;;;;;;;4.10;2.60;;;21.60;30.30;;;;;;5050748;28;20033;-53
2023/02/08 13:00:48;;;;;;;5.47;2.78;;;20.80;31.10;;;;;;5050594;28;20029;-56
2023/02/08 13:03:38;;;;;;;5.32;3.22;;;21.20;31.50;;;;;;5050935;28;20029;-58